Axton, Virginia
Current Conditions -  °F | °C
As of 4:15 PM on Sunday 21 Dec 2014 (Local Time) from KMTV Reporting Station
Overcast Overcast  
Wind Chill: 46°   Ceiling: 4600
Heat Index: 46°   Visibility: 10mi
Dew Point: 34°   Wind: 3mph
Humidity: 65%   Direction: 90°E
Pressure: 30.25"   Gusts: NA
Location:  36.66°N, 79.71°W
Report Text: KMTV 212115Z AUTO 09003KT 10SM OVC046 08/01 A3025 RMK AO2 T00750013
Loading
Personal Weather Stations






























Interactive Weather Map New forecast layout! Learn more

10-Day Weather Forecast

Advertisements
Track Severe Weather on mobile